»·PEaware :: N7166G KIGM-KDHT

N7166G :: KIGM-KDHT

FLIGHT INFORMATION

Flight Status: Arrived
Operator: Privately registered:
United States
More flights under this callsign
Pilot: John K. J. (32792)
Aircraft: DASSAULT AVIATION FALCON 20/100
(FA20)
More flights by this aircraft type
Origin: KIGM Kingman
United States
Destination: KDHT Dalhart Mun
United States
More flights between these airports :: More routes between these airports
Route: PGS V291 FLG V291 INW V291 GUP V62 SAF V263 FTI V190 DHT
File this flight plan on PilotEdge
Remarks:
Altitude:
(Current/Filed)
17,500ft
Speed:
(Current/Filed)
280kts
Departed: 08-Dec-21 01:57 PM
Arrived: 08-Dec-21 03:33 PM
Distance/Time
Traveled:
557nm/1:36
Distance/Time
To Go:
Arrived

Flight Plot

Page will automatically refresh every two minutes.

Flight plan parsing failed; only flown route is shown


Map Options




Map Legend


Flown Route
Filed Route
Departure Airport
Arrival Airport
Navaid (VOR, NDB)
Fix

Horizontal Profiles

Position Reports

Time Latitude Longitude Heading Altitude Ground
Speed
08-Dec-21 13:45 35.257070 -113.945924 314 3454ft 0kts
08-Dec-21 13:46 35.257070 -113.945924 314 3454ft 0kts
08-Dec-21 13:47 35.257070 -113.945924 314 3454ft 0kts
08-Dec-21 13:48 35.257070 -113.945924 314 3454ft 0kts
08-Dec-21 13:49 35.257070 -113.945924 314 3454ft 0kts
08-Dec-21 13:50 35.257070 -113.945924 314 3454ft 0kts
08-Dec-21 13:51 35.257143 -113.945749 138 3454ft 0kts
08-Dec-21 13:52 35.257141 -113.945746 138 3454ft 0kts
08-Dec-21 13:53 35.254847 -113.946718 225 3454ft 28kts
08-Dec-21 13:54 35.252328 -113.948290 149 3454ft 0kts
08-Dec-21 13:55 35.252274 -113.947123 45 3454ft 13kts
08-Dec-21 13:56 35.280590 -113.912641 38 4547ft 231kts
08-Dec-21 13:57 35.338672 -113.855195 39 6367ft 257kts
08-Dec-21 13:58 35.393740 -113.796982 41 8546ft 266kts
08-Dec-21 13:59 35.450024 -113.735912 41 11063ft 276kts
08-Dec-21 14:00 35.508106 -113.672455 41 13574ft 286kts
08-Dec-21 14:01 35.576528 -113.597478 41 15916ft 376kts
08-Dec-21 14:02 35.622980 -113.486073 94 17513ft 393kts
08-Dec-21 14:03 35.591553 -113.356929 110 17500ft 398kts
08-Dec-21 14:04 35.552755 -113.229603 109 17500ft 399kts
08-Dec-21 14:05 35.516812 -113.100491 107 17500ft 400kts
08-Dec-21 14:06 35.482826 -112.971041 107 17500ft 400kts
08-Dec-21 14:07 35.449553 -112.841385 107 17500ft 400kts
08-Dec-21 14:08 35.416440 -112.711606 107 17500ft 400kts
08-Dec-21 14:09 35.383217 -112.581538 107 17500ft 400kts
08-Dec-21 14:10 35.350002 -112.451970 107 17500ft 400kts
08-Dec-21 14:11 35.316667 -112.322525 107 17500ft 400kts
08-Dec-21 14:12 35.282616 -112.190948 107 17500ft 409kts
08-Dec-21 14:13 35.248109 -112.058269 107 17500ft 413kts
08-Dec-21 14:14 35.213093 -111.924308 107 17500ft 416kts
08-Dec-21 14:15 35.178041 -111.790893 107 17500ft 412kts
08-Dec-21 14:16 35.147305 -111.656321 100 17500ft 411kts
08-Dec-21 14:17 35.131778 -111.518368 96 17500ft 411kts
08-Dec-21 14:18 35.118899 -111.380014 96 17500ft 411kts
08-Dec-21 14:19 35.105790 -111.241257 96 17500ft 411kts
08-Dec-21 14:20 35.092366 -111.103071 96 17500ft 411kts
08-Dec-21 14:21 35.078696 -110.964918 96 17500ft 411kts
08-Dec-21 14:22 35.065552 -110.826764 91 17499ft 411kts
08-Dec-21 14:23 35.083655 -110.689294 75 17500ft 411kts
08-Dec-21 14:24 35.107941 -110.580585 74 17499ft 411kts
08-Dec-21 14:25 35.138620 -110.446508 74 17499ft 411kts
08-Dec-21 14:26 35.168871 -110.311749 74 17500ft 411kts
08-Dec-21 14:27 35.198594 -110.177254 74 17500ft 411kts
08-Dec-21 14:28 35.228042 -110.042634 74 17500ft 411kts
08-Dec-21 14:29 35.257297 -109.907883 74 17500ft 411kts
08-Dec-21 14:30 35.286473 -109.772579 75 17500ft 411kts
08-Dec-21 14:31 35.315395 -109.637637 75 17500ft 411kts
08-Dec-21 14:32 35.344125 -109.502792 75 17500ft 411kts
08-Dec-21 14:33 35.372741 -109.367680 75 17500ft 411kts
08-Dec-21 14:34 35.397965 -109.247876 75 17500ft 411kts
08-Dec-21 14:35 35.426297 -109.112515 75 17500ft 411kts
08-Dec-21 14:36 35.454467 -108.977069 75 17500ft 411kts
08-Dec-21 14:37 35.477021 -108.839715 82 17500ft 411kts
08-Dec-21 14:38 35.487185 -108.700439 85 17500ft 411kts
08-Dec-21 14:39 35.495425 -108.560944 85 17500ft 411kts
08-Dec-21 14:40 35.503471 -108.421440 85 17500ft 411kts
08-Dec-21 14:41 35.511475 -108.281445 85 17500ft 411kts
08-Dec-21 14:42 35.519342 -108.141882 85 17499ft 411kts
08-Dec-21 14:43 35.527069 -108.002309 86 17500ft 411kts
08-Dec-21 14:44 35.534646 -107.862696 86 17500ft 411kts
08-Dec-21 14:45 35.542088 -107.722600 86 17500ft 411kts
08-Dec-21 14:46 35.549340 -107.582968 86 17500ft 411kts
08-Dec-21 14:47 35.556435 -107.443302 86 17500ft 411kts
08-Dec-21 14:48 35.563396 -107.303147 86 17500ft 411kts
08-Dec-21 14:49 35.570169 -107.163431 86 17500ft 411kts
08-Dec-21 14:50 35.576784 -107.023650 86 17500ft 411kts
08-Dec-21 14:51 35.583233 -106.883919 86 17500ft 411kts
08-Dec-21 14:52 35.589540 -106.743686 86 17500ft 411kts
08-Dec-21 14:53 35.595667 -106.603855 86 17500ft 411kts
08-Dec-21 14:54 35.601626 -106.464011 86 17500ft 411kts
08-Dec-21 14:55 35.607445 -106.323657 86 17500ft 411kts
08-Dec-21 14:56 35.613064 -106.183831 87 17500ft 411kts
08-Dec-21 14:57 35.623970 -106.044523 80 17499ft 411kts
08-Dec-21 14:59 35.643525 -105.906472 79 17500ft 411kts
08-Dec-21 15:00 35.664049 -105.768233 79 17500ft 411kts
08-Dec-21 15:01 35.684342 -105.630264 79 17500ft 411kts
08-Dec-21 15:02 35.704399 -105.492282 79 17500ft 411kts
08-Dec-21 15:03 35.724262 -105.354218 79 17500ft 411kts
08-Dec-21 15:04 35.744016 -105.215600 79 17500ft 411kts
08-Dec-21 15:05 35.763536 -105.077381 80 17500ft 411kts
08-Dec-21 15:06 35.781351 -104.950203 80 17500ft 411kts
08-Dec-21 15:07 35.800565 -104.811839 80 17500ft 411kts
08-Dec-21 15:08 35.819686 -104.672945 80 17500ft 411kts
08-Dec-21 15:09 35.838576 -104.534497 80 17500ft 411kts
08-Dec-21 15:10 35.857320 -104.395926 80 17500ft 411kts
08-Dec-21 15:11 35.875892 -104.257329 80 17500ft 411kts
08-Dec-21 15:12 35.894008 -104.118120 81 17500ft 411kts
08-Dec-21 15:13 35.906736 -103.978444 84 17500ft 411kts
08-Dec-21 15:14 35.918302 -103.838577 84 17464ft 411kts
08-Dec-21 15:15 35.930028 -103.698922 84 16840ft 404kts
08-Dec-21 15:16 35.941491 -103.563256 84 15747ft 394kts
08-Dec-21 15:17 35.952506 -103.432224 84 14809ft 373kts
08-Dec-21 15:18 35.962564 -103.311401 84 13258ft 334kts
08-Dec-21 15:19 35.971514 -103.202642 84 11622ft 301kts
08-Dec-21 15:20 35.979343 -103.106554 84 9837ft 279kts
08-Dec-21 15:21 35.986522 -103.017642 84 8021ft 243kts
08-Dec-21 15:22 35.992714 -102.940323 84 7497ft 212kts
08-Dec-21 15:22 35.997396 -102.881427 84 7498ft 203kts
08-Dec-21 15:24 36.003712 -102.801466 84 7500ft 200kts
08-Dec-21 15:25 36.009072 -102.733094 84 7172ft 203kts
08-Dec-21 15:26 36.014508 -102.663616 85 5648ft 185kts
08-Dec-21 15:26 36.018272 -102.614956 85 5019ft 171kts
08-Dec-21 15:27 36.056513 -102.594089 0 4996ft 162kts
08-Dec-21 15:29 36.097750 -102.571312 86 4605ft 142kts
08-Dec-21 15:30 36.071482 -102.546221 180 4598ft 128kts
08-Dec-21 15:31 36.036922 -102.546417 179 4131ft 118kts
08-Dec-21 15:31 36.019904 -102.546377 179 3996ft 46kts
08-Dec-21 15:32 36.013989 -102.547909 334 3996ft 16kts
08-Dec-21 15:33 36.020983 -102.547969 357 3996ft 23kts
08-Dec-21 15:35 36.026559 -102.548468 0 3996ft 0kts
08-Dec-21 15:35 36.027495 -102.548865 359 3996ft 0kts
08-Dec-21 15:36 36.027499 -102.548866 359 3996ft 0kts
08-Dec-21 15:37 36.027502 -102.548866 359 3996ft 0kts
08-Dec-21 15:38 36.027502 -102.548866 359 3996ft 0kts
08-Dec-21 15:39 36.027502 -102.548866 359 3996ft 0kts
08-Dec-21 15:40 36.027502 -102.548866 359 3996ft 0kts
08-Dec-21 15:41 36.027502 -102.548866 359 3996ft 0kts
08-Dec-21 15:42 36.027502 -102.548866 359 3996ft 0kts
08-Dec-21 15:43 36.027502 -102.548866 359 3996ft 0kts
08-Dec-21 15:44 36.027502 -102.548866 359 3996ft 0kts
08-Dec-21 15:45 36.027502 -102.548866 359 3996ft 0kts
08-Dec-21 15:46 36.027502 -102.548866 359 3996ft 0kts

Navigation Log

Ident Type
Flight plan parsing failed, navigation log unavailable